Flight Track Log - Related Links

Times and Time Zones

All times are in EDT time to prevent confusion due to time zone crossing. See the DAL1903 flight status page for this flight to view local times or setup timezone preferences in your user account.

Time Position Orientation Groundspeed Altitude Reporting Facility
EDT Latitude Longitude Course Direction KTS MPH feet Rate Location/Type
Sat 12:05:35 40.7833 -73.8833 242° Southwest 142 163 1,100  Level New York TRACON
Sat 12:06:41 40.8500 -73.9333 330° Northwest 228 262 3,000 2,500 Climbing New York TRACON
Sat 12:07:35 40.9000 -73.9667 333° Northwest 245 282 6,100 3,158 Climbing New York TRACON
Sat 12:08:00 40.6500 -74.2318 270° West  Level FlightAware Approximate
Sat 12:08:35 40.9000 -74.0500 270° West 246 283 9,000  Level New York TRACON
Sat 12:09:00 40.6050 -74.3532 244° Southwest  Level FlightAware Approximate
Sat 12:09:35 40.8500 -74.1167 225° Southwest 238 274 11,700  Level New York TRACON
Sat 12:10:00 40.5634 -74.4768 246° West  Level FlightAware Approximate
Sat 12:10:35 40.8167 -74.2000 242° Southwest 291 335 13,200  Level New York TRACON
Sat 12:11:00 40.5321 -74.6031 242° Southwest  Level FlightAware Approximate
Sat 12:11:35 40.7500 -74.2833 223° Southwest 338 389 14,900  Level New York TRACON
Sat 12:13:59 40.6297 -74.5036 234° Southwest 344 396 17,800 1,844 Climbing New York Center
Sat 12:15:00 40.5767 -74.6017 235° Southwest 344 396 21,200 2,874 Climbing New York Center
Sat 12:15:58 40.5319 -74.6894 236° Southwest 323 372 23,500 1,664 Climbing New York Center
Sat 12:16:59 40.4869 -74.7878 239° Southwest 315 362 24,500 1,736 Climbing New York Center
Sat 12:17:59 40.4464 -74.8781 239° Southwest 304 350 27,000 1,736 Climbing New York Center
Sat 12:19:00 40.4097 -74.9714 243° Southwest 299 344 28,000 504 Climbing New York Center
Sat 12:19:58 40.3708 -75.0669 242° Southwest 299 344 28,000  Level New York Center
Sat 12:20:59 40.3297 -75.1681 242° Southwest 304 350 28,000  Level New York Center
Sat 12:22:00 40.2903 -75.2717 244° Southwest 310 357 28,000  Level New York Center
Sat 12:22:58 40.2489 -75.3694 241° Southwest 315 362 28,000  Level New York Center
Sat 12:23:58 40.2094 -75.4756 244° Southwest 320 368 28,000  Level New York Center
Sat 12:24:59 40.1578 -75.5672 234° Southwest 320 368 28,000  Level New York Center
Sat 12:26:00 40.0786 -75.6161 205° Southwest 308 354 28,000  Level New York Center
Sat 12:27:00 39.9853 -75.6583 199° South 308 354 28,000  Level New York Center
Sat 12:27:58 39.9217 -75.7322 222° Southwest 314 361 28,000  Level New York Center
Sat 12:28:59 39.8617 -75.8172 227° Southwest 314 361 28,000  Level New York Center
Sat 12:30:51 39.7547 -75.9722 228° Southwest 312 359 28,000  Level Washington Center
Sat 12:31:51 39.6939 -76.0581 227° Southwest 319 367 28,000  Level Washington Center
Sat 12:32:51 39.6353 -76.1467 229° Southwest 324 373 28,000  Level Washington Center
Sat 12:33:51 39.5744 -76.2322 227° Southwest 324 373 28,000  Level Washington Center
Sat 12:34:51 39.5156 -76.3178 228° Southwest 324 373 28,000  Level Washington Center
Sat 12:35:51 39.4544 -76.4058 228° Southwest 324 373 28,000  Level Washington Center
Sat 12:36:51 39.3978 -76.4967 231° Southwest 329 379 28,000  Level Washington Center
Sat 12:37:51 39.3367 -76.5844 228° Southwest 335 386 28,000  Level Washington Center
Sat 12:38:51 39.2794 -76.6775 232° Southwest 335 386 28,000  Level Washington Center
Sat 12:39:51 39.2225 -76.7650 230° Southwest 330 380 28,000  Level Washington Center
Sat 12:40:51 39.1631 -76.8578 230° Southwest 330 380 28,000  Level Washington Center
Sat 12:41:51 39.1058 -76.9450 230° Southwest 330 380 28,000  Level Washington Center
Sat 12:42:51 39.0464 -77.0350 230° Southwest 330 380 28,000  Level Washington Center
Sat 12:43:51 38.9767 -77.1108 220° Southwest 330 380 28,000  Level Washington Center
Sat 12:44:51 38.9069 -77.1869 220° Southwest 330 380 28,000  Level Washington Center
Sat 12:45:51 38.8328 -77.2706 221° Southwest 330 380 28,000  Level Washington Center
Sat 12:46:51 38.7631 -77.3461 220° Southwest 330 380 28,000  Level Washington Center
Sat 12:47:51 38.6953 -77.4217 221° Southwest 330 380 28,000  Level Washington Center
Sat 12:48:51 38.6253 -77.4997 221° Southwest 330 380 28,000  Level Washington Center
Sat 12:49:51 38.5572 -77.5750 221° Southwest 330 380 28,000  Level Washington Center
Sat 12:50:51 38.4850 -77.6525 220° Southwest 330 380 28,000  Level Washington Center
Sat 12:51:51 38.4150 -77.7247 219° Southwest 330 380 28,000  Level Washington Center
Sat 12:52:51 38.3469 -77.7997 221° Southwest 330 380 28,000  Level Washington Center
Sat 12:53:51 38.2767 -77.8769 221° Southwest 336 387 28,000  Level Washington Center
Sat 12:54:51 38.2064 -77.9489 219° Southwest 336 387 28,000  Level Washington Center
Sat 12:55:51 38.1361 -78.0258 221° Southwest 336 387 28,000  Level Washington Center
Sat 12:56:51 38.0656 -78.1025 221° Southwest 336 387 28,000  Level Washington Center
Sat 12:57:51 37.9933 -78.1714 217° Southwest 331 381 28,000  Level Washington Center
Sat 12:58:51 37.9314 -78.2350 219° Southwest 331 381 28,000  Level Washington Center
Sat 12:59:51 37.8506 -78.3111 217° Southwest 331 381 28,000  Level Washington Center
Sat 13:00:51 37.7844 -78.3769 218° Southwest 336 387 28,000  Level Washington Center
Sat 13:01:51 37.7011 -78.4528 216° Southwest 336 387 28,000  Level Washington Center
Sat 13:02:51 37.6286 -78.5208 217° Southwest 341 392 28,000  Level Washington Center
Sat 13:03:51 37.5517 -78.5939 217° Southwest 341 392 28,000  Level Washington Center
Sat 13:04:51 37.4769 -78.6614 216° Southwest 341 392 28,000  Level Washington Center
Sat 13:05:51 37.4022 -78.7292 216° Southwest 341 392 28,000  Level Washington Center
Sat 13:06:51 37.3339 -78.7942 217° Southwest 346 398 28,000  Level Washington Center
Sat 13:07:51 37.2608 -78.8642 217° Southwest 346 398 28,000  Level Washington Center
Sat 13:08:51 37.1839 -78.9339 216° Southwest 346 398 28,000  Level Washington Center
Sat 13:09:51 37.1089 -79.0036 217° Southwest 346 398 28,000  Level Washington Center
Sat 13:10:51 37.0319 -79.0731 216° Southwest 346 398 28,000  Level Washington Center
Sat 13:11:51 36.9481 -79.1525 217° Southwest 346 398 28,000  Level Washington Center
Sat 13:12:51 36.8731 -79.2242 217° Southwest 346 398 28,000  Level Washington Center
Sat 13:14:53 36.7181 -79.3644 216° Southwest 351 404 28,000  Level Atlanta Center
Sat 13:15:53 36.6514 -79.4253 216° Southwest 351 404 28,000  Level Atlanta Center
Sat 13:16:53 36.5728 -79.4969 216° Southwest 351 404 28,000  Level Atlanta Center
Sat 13:17:53 36.4961 -79.5658 216° Southwest 351 404 28,000  Level Atlanta Center
Sat 13:18:53 36.4194 -79.6372 217° Southwest 351 404 28,000  Level Atlanta Center
Sat 13:19:53 36.3447 -79.7058 216° Southwest 351 404 28,000  Level Atlanta Center
Sat 13:20:53 36.2597 -79.7797 215° Southwest 351 404 28,000  Level Atlanta Center
Sat 13:21:53 36.1828 -79.8483 216° Southwest 351 404 28,000  Level Atlanta Center
Sat 13:22:53 36.1058 -79.9164 216° Southwest 351 404 28,000  Level Atlanta Center
Sat 13:23:53 36.0247 -79.9847 214° Southwest 351 404 28,000  Level Atlanta Center
Sat 13:24:53 35.9444 -80.0222 201° Southwest 351 404 28,000  Level Atlanta Center
Sat 13:25:53 35.8522 -80.0678 202° Southwest 351 404 28,000  Level Atlanta Center
Sat 13:26:53 35.7639 -80.1156 204° Southwest 351 404 28,000  Level Atlanta Center
Sat 13:27:53 35.6717 -80.1608 202° Southwest 351 404 28,000  Level Atlanta Center
Sat 13:28:53 35.5814 -80.2086 203° Southwest 351 404 28,000  Level Atlanta Center
Sat 13:29:53 35.4908 -80.2511 201° Southwest 351 404 28,000  Level Atlanta Center
Sat 13:30:53 35.4006 -80.2986 203° Southwest 351 404 28,000  Level Atlanta Center
Sat 13:31:53 35.2978 -80.3489 202° Southwest 351 404 28,000  Level Atlanta Center
Sat 13:33:44 35.1286 -80.4308 202° Southwest 370 426 28,000  Level Jacksonville Center
Sat 13:34:44 35.0358 -80.4792 203° Southwest 365 420 28,000  Level Jacksonville Center
Sat 13:35:44 34.9408 -80.5272 203° Southwest 365 420 28,000  Level Jacksonville Center
Sat 13:36:44 34.8497 -80.5728 202° Southwest 359 413 28,000  Level Jacksonville Center
Sat 13:37:44 34.7692 -80.6156 204° Southwest 364 419 28,000  Level Jacksonville Center
Sat 13:38:44 34.6761 -80.6608 202° Southwest 358 412 28,000  Level Jacksonville Center
Sat 13:39:44 34.5789 -80.7089 202° Southwest 364 419 28,000  Level Jacksonville Center
Sat 13:40:44 34.4839 -80.7564 202° Southwest 371 427 28,000  Level Jacksonville Center
Sat 13:41:44 34.3928 -80.8014 202° Southwest 366 421 28,000  Level Jacksonville Center
Sat 13:42:44 34.2975 -80.8414 199° South 366 421 28,000  Level Jacksonville Center
Sat 13:43:44 34.2086 -80.8914 205° Southwest 366 421 28,000  Level Jacksonville Center
Sat 13:44:44 34.1133 -80.9336 200° South 366 421 28,000  Level Jacksonville Center
Sat 13:45:44 34.0139 -80.9808 201° Southwest 371 427 28,000  Level Jacksonville Center
Sat 13:46:44 33.9125 -81.0333 203° Southwest 371 427 28,000  Level Jacksonville Center
Sat 13:47:44 33.8172 -81.0803 202° Southwest 371 427 28,000  Level Jacksonville Center
Sat 13:48:44 33.7300 -81.1219 202° Southwest 371 427 28,000  Level Jacksonville Center
Sat 13:49:44 33.6369 -81.1689 203° Southwest 371 427 28,000  Level Jacksonville Center
Sat 13:50:44 33.5436 -81.2156 203° Southwest 371 427 28,000  Level Jacksonville Center
Sat 13:51:44 33.4503 -81.2619 203° Southwest 371 427 28,000  Level Jacksonville Center
Sat 13:52:44 33.3547 -81.3061 201° Southwest 371 427 28,000  Level Jacksonville Center
Sat 13:53:44 33.2614 -81.3525 203° Southwest 371 427 28,000  Level Jacksonville Center
Sat 13:54:44 33.1703 -81.3986 203° Southwest 371 427 28,000  Level Jacksonville Center
Sat 13:55:44 33.0767 -81.4447 202° Southwest 371 427 28,000  Level Jacksonville Center
Sat 13:56:44 32.9833 -81.4883 201° Southwest 371 427 28,000  Level Jacksonville Center
Sat 13:57:44 32.8878 -81.5344 202° Southwest 376 433 28,000  Level Jacksonville Center
Sat 13:58:44 32.7964 -81.5778 202° Southwest 371 427 28,000  Level Jacksonville Center
Sat 13:59:44 32.7008 -81.6236 202° Southwest 371 427 28,000  Level Jacksonville Center
Sat 14:00:44 32.6011 -81.6719 202° Southwest 371 427 28,000  Level Jacksonville Center
Sat 14:01:44 32.5181 -81.7150 204° Southwest 371 427 28,000  Level Jacksonville Center
Sat 14:02:44 32.4142 -81.7606 200° South 371 427 28,000  Level Jacksonville Center
Sat 14:03:44 32.3225 -81.7814 191° South 376 433 28,000  Level Jacksonville Center
Sat 14:04:44 32.2100 -81.8025 189° South 376 433 28,000  Level Jacksonville Center
Sat 14:05:44 32.1097 -81.8256 191° South 376 433 28,000  Level Jacksonville Center
Sat 14:06:44 32.0161 -81.8414 188° South 371 427 28,000  Level Jacksonville Center
Sat 14:07:44 31.9036 -81.8647 190° South 371 427 28,000  Level Jacksonville Center
Sat 14:08:44 31.8117 -81.8806 188° South 371 427 28,000  Level Jacksonville Center
Sat 14:09:44 31.6969 -81.9011 189° South 371 427 28,000  Level Jacksonville Center
Sat 14:10:44 31.5950 -81.9219 190° South 371 427 28,000  Level Jacksonville Center
Sat 14:11:44 31.5011 -81.9400 189° South 371 427 28,000 -850 Level Jacksonville Center
Sat 14:12:44 31.3844 -81.9606 189° South 376 433 26,300 -1,550 Descending Jacksonville Center
Sat 14:13:44 31.2781 -81.9811 189° South 395 455 24,900 -1,150 Descending Jacksonville Center
Sat 14:14:44 31.1717 -82.0039 190° South 395 455 24,000 -450 Descending Jacksonville Center
Sat 14:15:44 31.0592 -82.0219 188° South 390 449 24,000  Level Jacksonville Center
Sat 14:16:44 30.9486 -82.0447 190° South 395 455 24,000  Level Jacksonville Center
Sat 14:17:44 30.8381 -82.0675 190° South 405 466 24,000  Level Jacksonville Center
Sat 14:18:44 30.7378 -82.0828 187° South 411 473 24,000  Level Jacksonville Center
Sat 14:19:44 30.6275 -82.1056 190° South 411 473 24,000  Level Jacksonville Center
Sat 14:20:44 30.5167 -82.1186 186° South 406 467 24,000  Level Jacksonville Center
Sat 14:21:44 30.4064 -82.1386 189° South 406 467 24,000  Level Jacksonville Center
Sat 14:22:44 30.2936 -82.1611 190° South 406 467 24,000  Level Jacksonville Center
Sat 14:23:44 30.1831 -82.1814 189° South 406 467 24,000  Level Jacksonville Center
Sat 14:24:44 30.0706 -82.2014 189° South 406 467 24,000  Level Jacksonville Center
Sat 14:25:44 29.9578 -82.2261 191° South 406 467 24,000  Level Jacksonville Center
Sat 14:26:44 29.8472 -82.2461 189° South 406 467 24,000 -50 Level Jacksonville Center
Sat 14:27:44 29.7325 -82.2636 188° South 413 475 23,900  Descending Jacksonville Center
Sat 14:28:44 29.6136 -82.2594 178° South 418 481 24,000 50 Climbing Jacksonville Center
Sat 14:29:44 29.5008 -82.2436 173° South 418 481 24,000  Level Jacksonville Center
Sat 14:30:44 29.3839 -82.2253 172° South 424 488 24,000  Level Jacksonville Center
Sat 14:31:44 29.2647 -82.2069 172° South 424 488 24,000 -300 Level Jacksonville Center
Sat 14:32:44 29.1497 -82.1889 172° South 429 494 23,400 -1,350 Descending Jacksonville Center
Sat 14:33:44 29.0411 -82.1728 173° South 412 474 21,300 -2,250 Descending Jacksonville Center
Sat 14:34:44 28.9242 -82.1525 171° South 395 455 18,900 -2,241 Descending Jacksonville Center
Sat 14:36:30 28.7500 -82.1333 174° South 360 414 15,100 -2,213 Descending Tampa TRACON
Sat 14:37:24 28.6667 -82.1167 170° South 348 400 13,000 -2,053 Descending Tampa TRACON
Sat 14:38:24 28.5667 -82.1000 172° South 346 398 11,200 -1,000 Descending Tampa TRACON
Sat 14:39:24 28.4667 -82.0833 172° South 350 403 11,000 -95 Descending Tampa TRACON
Sat 14:40:30 28.3667 -82.0667 172° South 365 420 11,000  Level Tampa TRACON
Sat 14:41:30 28.2500 -82.0500 173° South 377 434 11,000  Level Tampa TRACON
Sat 14:42:36 28.1333 -82.0333 173° South 379 436 11,000  Level Tampa TRACON
Sat 14:43:30 28.0500 -82.0667 199° South 350 403 11,000 -400 Level Tampa TRACON
Sat 14:44:36 27.9667 -82.1167 208° Southwest 291 335 10,200 -1,045 Descending Tampa TRACON
Sat 14:45:42 27.9000 -82.1500 204° Southwest 266 306 8,700 -1,500 Descending Tampa TRACON
Sat 14:46:48 27.8167 -82.2000 208° Southwest 263 303 6,900 -1,486 Descending Tampa TRACON
Sat 14:47:31 27.7833 -82.2167 204° Southwest 260 299 6,000 -500 Descending Tampa TRACON
Sat 14:48:36 27.7167 -82.2833 222° Southwest 256 295 6,000 -48 Level Tampa TRACON
Sat 14:49:36 27.6500 -82.3167 204° Southwest 257 296 5,900  Descending Tampa TRACON
Sat 14:50:37 27.5833 -82.3500 204° Southwest 258 297 6,000 -94 Climbing Tampa TRACON
Sat 14:51:43 27.5167 -82.3833 204° Southwest 257 296 5,700 -273 Descending Tampa TRACON

Login

Don't have an account? Register now (free) for customized features, flight alerts, and more!